地図

経路データ

SID SEASON NUMBER BASIN SUBBASIN NAME ISO_TIME NATURE LAT LON WMO_WIND WMO_PRES WMO_AGENCY TRACK_TYPE DIST2LAND LANDFALL IFLAG USA_AGENCY USA_ATCF_ID USA_LAT USA_LON USA_RECORD USA_STATUS USA_WIND USA_PRES USA_SSHS USA_R34_NE USA_R34_SE USA_R34_SW USA_R34_NW USA_R50_NE USA_R50_SE USA_R50_SW USA_R50_NW USA_R64_NE USA_R64_SE USA_R64_SW USA_R64_NW USA_POCI USA_ROCI USA_RMW USA_EYE TOKYO_LAT TOKYO_LON TOKYO_GRADE TOKYO_WIND TOKYO_PRES TOKYO_R50_DIR TOKYO_R50_LONG TOKYO_R50_SHORT TOKYO_R30_DIR TOKYO_R30_LONG TOKYO_R30_SHORT TOKYO_LAND CMA_LAT CMA_LON CMA_CAT CMA_WIND CMA_PRES HKO_LAT HKO_LON HKO_CAT HKO_WIND HKO_PRES NEWDELHI_LAT NEWDELHI_LON NEWDELHI_GRADE NEWDELHI_WIND NEWDELHI_PRES NEWDELHI_CI NEWDELHI_DP NEWDELHI_POCI REUNION_LAT REUNION_LON REUNION_TYPE REUNION_WIND REUNION_PRES REUNION_TNUM REUNION_CI REUNION_RMW REUNION_R34_NE REUNION_R34_SE REUNION_R34_SW REUNION_R34_NW REUNION_R50_NE REUNION_R50_SE REUNION_R50_SW REUNION_R50_NW REUNION_R64_NE REUNION_R64_SE REUNION_R64_SW REUNION_R64_NW BOM_LAT BOM_LON BOM_TYPE BOM_WIND BOM_PRES BOM_TNUM BOM_CI BOM_RMW BOM_R34_NE BOM_R34_SE BOM_R34_SW BOM_R34_NW BOM_R50_NE BOM_R50_SE BOM_R50_SW BOM_R50_NW BOM_R64_NE BOM_R64_SE BOM_R64_SW BOM_R64_NW BOM_ROCI BOM_POCI BOM_EYE BOM_POS_METHOD BOM_PRES_METHOD NADI_LAT NADI_LON NADI_CAT NADI_WIND NADI_PRES WELLINGTON_LAT WELLINGTON_LON WELLINGTON_WIND WELLINGTON_PRES DS824_LAT DS824_LON DS824_STAGE DS824_WIND DS824_PRES TD9636_LAT TD9636_LON TD9636_STAGE TD9636_WIND TD9636_PRES TD9635_LAT TD9635_LON TD9635_WIND TD9635_PRES TD9635_ROCI NEUMANN_LAT NEUMANN_LON NEUMANN_CLASS NEUMANN_WIND NEUMANN_PRES MLC_LAT MLC_LON MLC_CLASS MLC_WIND MLC_PRES USA_GUST BOM_GUST BOM_GUST_PER REUNION_GUST REUNION_GUST_PER USA_SEAHGT USA_SEARAD_NE USA_SEARAD_SE USA_SEARAD_SW USA_SEARAD_NW STORM_SPEED STORM_DIR
1861039S10077 1861 5 SI MM NOT_NAMED 1861-02-07 18:00:00 NR -9.90000 76.9000 main 1817 1817 __________O___ -1 -9.90000 76.9000 7 7 206
1861039S10077 1861 5 SI MM NOT_NAMED 1861-02-07 21:00:00 NR -10.2110 76.7519 main 1852 1852 __________P___ -1 -10.2110 76.7519 7 7 205
1861039S10077 1861 5 SI MM NOT_NAMED 1861-02-08 00:00:00 NR -10.5176 76.6128 main 1890 1890 __________P___ -1 -10.5176 76.6128 7 7 203
1861039S10077 1861 5 SI MM NOT_NAMED 1861-02-08 03:00:00 NR -10.8154 76.4924 main 1925 1925 __________P___ -1 -10.8154 76.4924 7 6 200
1861039S10077 1861 5 SI MM NOT_NAMED 1861-02-08 06:00:00 NR -11.1000 76.4000 main 1960 1960 __________O___ -1 -11.1000 76.4000 7 6 195
1861039S10077 1861 5 SI MM NOT_NAMED 1861-02-08 09:00:00 NR -11.3684 76.3421 main 1996 1996 __________P___ -1 -11.3684 76.3421 7 5 189
1861039S10077 1861 5 SI MM NOT_NAMED 1861-02-08 12:00:00 NR -11.6225 76.3124 main 2017 2017 __________P___ -1 -11.6225 76.3124 7 5 185
1861039S10077 1861 5 SI MM NOT_NAMED 1861-02-08 15:00:00 NR -11.8653 76.3015 main 2050 2050 __________P___ -1 -11.8653 76.3015 7 5 183
1861039S10077 1861 5 SI MM NOT_NAMED 1861-02-08 18:00:00 NR -12.1000 76.3000 main 2072 2072 __________O___ -1 -12.1000 76.3000 7 5 0
1861039S10077 1861 5 SI MM NOT_NAMED 1861-02-08 21:00:00 NR -12.3403 76.2847 main 2093 2093 __________P___ -1 -12.3403 76.2847 7 5 183
1861039S10077 1861 5 SI MM NOT_NAMED 1861-02-09 00:00:00 NR -12.5725 76.2775 main 2126 2126 __________P___ -1 -12.5725 76.2775 7 5 0
1861039S10077 1861 5 SI MM NOT_NAMED 1861-02-09 03:00:00 NR -12.7934 76.2816 main 2141 2131 __________P___ -1 -12.7934 76.2816 7 4 177
1861039S10077 1861 5 SI MM NOT_NAMED 1861-02-09 06:00:00 NR -13.0000 76.3000 main 2131 2122 __________O___ -1 -13.0000 76.3000 7 4 173
1861039S10077 1861 5 SI MM NOT_NAMED 1861-02-09 09:00:00 NR -13.1975 76.3356 main 2122 2117 __________P___ -1 -13.1975 76.3356 7 4 169
1861039S10077 1861 5 SI MM NOT_NAMED 1861-02-09 12:00:00 NR -13.3800 76.3849 main 2123 2118 __________P___ -1 -13.3800 76.3849 7 4 164
1861039S10077 1861 5 SI MM NOT_NAMED 1861-02-09 15:00:00 NR -13.5475 76.4418 main 2118 2114 __________P___ -1 -13.5475 76.4418 7 3 161
1861039S10077 1861 5 SI MM NOT_NAMED 1861-02-09 18:00:00 NR -13.7000 76.5000 main 2119 2115 __________O___ -1 -13.7000 76.5000 7 3 160
1861039S10077 1861 5 SI MM NOT_NAMED 1861-02-09 21:00:00 NR -13.8434 76.5460 main 2115 2110 __________P___ -1 -13.8434 76.5460 7 3 163
1861039S10077 1861 5 SI MM NOT_NAMED 1861-02-10 00:00:00 NR -13.9725 76.5926 main 2116 2112 __________P___ -1 -13.9725 76.5926 7 3 158
1861039S10077 1861 5 SI MM NOT_NAMED 1861-02-10 03:00:00 NR -14.0903 76.6428 main 2112 2112 __________P___ -1 -14.0903 76.6428 7 3 155
1861039S10077 1861 5 SI MM NOT_NAMED 1861-02-10 06:00:00 NR -14.2000 76.7000 main 2118 2114 __________O___ -1 -14.2000 76.7000 7 3 150
1861039S10077 1861 5 SI MM NOT_NAMED 1861-02-10 09:00:00 NR -14.3113 76.7759 main 2124 2120 __________P___ -1 -14.3113 76.7759 7 3 144
1861039S10077 1861 5 SI MM NOT_NAMED 1861-02-10 12:00:00 NR -14.4150 76.8575 main 2130 2126 __________P___ -1 -14.4150 76.8575 7 3 142
1861039S10077 1861 5 SI MM NOT_NAMED 1861-02-10 15:00:00 NR -14.5113 76.9353 main 2126 2126 __________P___ -1 -14.5113 76.9353 7 2 143
1861039S10077 1861 5 SI MM NOT_NAMED 1861-02-10 18:00:00 NR -14.6000 77.0000 main 2132 2128 __________O___ -1 -14.6000 77.0000 7 2 150
1861039S10077 1861 5 SI MM NOT_NAMED 1861-02-10 21:00:00 NR -14.6862 77.0354 main 2128 2128 __________P___ -1 -14.6862 77.0354 7 2 163
1861039S10077 1861 5 SI MM NOT_NAMED 1861-02-11 00:00:00 NR -14.7650 77.0576 main 2135 2135 __________P___ -1 -14.7650 77.0576 7 2 168
1861039S10077 1861 5 SI MM NOT_NAMED 1861-02-11 03:00:00 NR -14.8362 77.0760 main 2135 2131 __________P___ -1 -14.8362 77.0760 7 1 161
1861039S10077 1861 5 SI MM NOT_NAMED 1861-02-11 06:00:00 NR -14.9000 77.1000 main 2131 2127 __________O___ -1 -14.9000 77.1000 7 1 153
1861039S10077 1861 5 SI MM NOT_NAMED 1861-02-11 09:00:00 NR -14.9531 77.1388 main 2127 2127 __________P___ -1 -14.9531 77.1388 7 1 143
1861039S10077 1861 5 SI MM NOT_NAMED 1861-02-11 12:00:00 NR -15.0000 77.1850 main 2138 2138 __________P___ -1 -15.0000 77.1850 7 1 133
1861039S10077 1861 5 SI MM NOT_NAMED 1861-02-11 15:00:00 NR -15.0469 77.2388 main 2138 2134 __________P___ -1 -15.0469 77.2388 7 2 132
1861039S10077 1861 5 SI MM NOT_NAMED 1861-02-11 18:00:00 NR -15.1000 77.3000 main 2144 2144 __________O___ -1 -15.1000 77.3000 7 2 132
1861039S10077 1861 5 SI MM NOT_NAMED 1861-02-11 21:00:00 NR -15.1556 77.3638 main 2151 2151 __________P___ -1 -15.1556 77.3638 7 2 133
1861039S10077 1861 5 SI MM NOT_NAMED 1861-02-12 00:00:00 NR -15.2200 77.4351 main 2151 2151 __________P___ -1 -15.2200 77.4351 7 2 135
1861039S10077 1861 5 SI MM NOT_NAMED 1861-02-12 03:00:00 NR -15.2994 77.5138 main 2157 2157 __________P___ -1 -15.2994 77.5138 7 2 138
1861039S10077 1861 5 SI MM NOT_NAMED 1861-02-12 06:00:00 NR -15.4000 77.6000 main 2164 2161 __________O___ -1 -15.4000 77.6000 7 3 145
1861039S10077 1861 5 SI MM NOT_NAMED 1861-02-12 09:00:00 NR -15.5406 77.6927 main 2171 2168 __________P___ -1 -15.5406 77.6927 7 4 149
1861039S10077 1861 5 SI MM NOT_NAMED 1861-02-12 12:00:00 NR -15.7000 77.7924 main 2175 2172 __________P___ -1 -15.7000 77.7924 7 4 149
1861039S10077 1861 5 SI MM NOT_NAMED 1861-02-12 15:00:00 NR -15.8594 77.8959 main 2179 2179 __________P___ -1 -15.8594 77.8959 7 4 147
1861039S10077 1861 5 SI MM NOT_NAMED 1861-02-12 18:00:00 NR -16.0000 78.0000 main 2186 2186 __________O___ -1 -16.0000 78.0000 7 3 140
1861039S10077 1861 5 SI MM NOT_NAMED 1861-02-12 21:00:00 NR -16.0925 78.1001 main 2193 2193 __________P___ -1 -16.0925 78.1001 7 3 131
1861039S10077 1861 5 SI MM NOT_NAMED 1861-02-13 00:00:00 NR -16.1650 78.2001 main 2201 2201 __________P___ -1 -16.1650 78.2001 7 2 125
1861039S10077 1861 5 SI MM NOT_NAMED 1861-02-13 03:00:00 NR -16.2300 78.3001 main 2211 2208 __________P___ -1 -16.2300 78.3001 7 2 125
1861039S10077 1861 5 SI MM NOT_NAMED 1861-02-13 06:00:00 NR -16.3000 78.4000 main 2218 2218 __________O___ -1 -16.3000 78.4000 7 3 131
1861039S10077 1861 5 SI MM NOT_NAMED 1861-02-13 09:00:00 NR -16.3968 78.4959 main 2226 2223 __________P___ -1 -16.3968 78.4959 7 3 137
1861039S10077 1861 5 SI MM NOT_NAMED 1861-02-13 12:00:00 NR -16.5000 78.5925 main 2233 2231 __________P___ -1 -16.5000 78.5925 7 3 137
1861039S10077 1861 5 SI MM NOT_NAMED 1861-02-13 15:00:00 NR -16.6031 78.6928 main 2241 2238 __________P___ -1 -16.6031 78.6928 7 3 135
1861039S10077 1861 5 SI MM NOT_NAMED 1861-02-13 18:00:00 NR -16.7000 78.8000 main 2249 2249 __________O___ -1 -16.7000 78.8000 7 3 128
1861039S10077 1861 5 SI MM NOT_NAMED 1861-02-13 21:00:00 NR -16.7741 78.9219 main 2256 2256 __________P___ -1 -16.7741 78.9219 7 3 121
1861039S10077 1861 5 SI MM NOT_NAMED 1861-02-14 00:00:00 NR -16.8425 79.0501 main 2277 2275 __________P___ -1 -16.8425 79.0501 7 3 120
1861039S10077 1861 5 SI MM NOT_NAMED 1861-02-14 03:00:00 NR -16.9147 79.1782 main 2285 2283 __________P___ -1 -16.9147 79.1782 7 3 123
1861039S10077 1861 5 SI MM NOT_NAMED 1861-02-14 06:00:00 NR -17.0000 79.3000 main 2293 2293 __________O___ -1 -17.0000 79.3000 7 3 132
1861039S10077 1861 5 SI MM NOT_NAMED 1861-02-14 09:00:00 NR -17.1146 79.4031 main 2301 2299 __________P___ -1 -17.1146 79.4031 7 3 142
1861039S10077 1861 5 SI MM NOT_NAMED 1861-02-14 12:00:00 NR -17.2424 79.5000 main 2309 2307 __________P___ -1 -17.2424 79.5000 7 3 144
1861039S10077 1861 5 SI MM NOT_NAMED 1861-02-14 15:00:00 NR -17.3740 79.5969 main 2315 2315 __________P___ -1 -17.3740 79.5969 7 3 144
1861039S10077 1861 5 SI MM NOT_NAMED 1861-02-14 18:00:00 NR -17.5000 79.7000 main 2323 2323 __________O___ -1 -17.5000 79.7000 7 3 137
1861039S10077 1861 5 SI MM NOT_NAMED 1861-02-14 21:00:00 NR -17.6072 79.8219 main 2331 2331 __________P___ -1 -17.6072 79.8219 7 3 131
1861039S10077 1861 5 SI MM NOT_NAMED 1861-02-15 00:00:00 NR -17.7075 79.9500 main 2350 2348 __________P___ -1 -17.7075 79.9500 7 3 129
1861039S10077 1861 5 SI MM NOT_NAMED 1861-02-15 03:00:00 NR -17.8041 80.0781 main 2358 2356 __________P___ -1 -17.8041 80.0781 7 3 129
1861039S10077 1861 5 SI MM NOT_NAMED 1861-02-15 06:00:00 NR -17.9000 80.2000 main 2367 2367 __________O___ -1 -17.9000 80.2000 7 3 132
1861039S10077 1861 5 SI MM NOT_NAMED 1861-02-15 09:00:00 NR -17.9999 80.3032 main 2375 2375 __________P___ -1 -17.9999 80.3032 7 3 136
1861039S10077 1861 5 SI MM NOT_NAMED 1861-02-15 12:00:00 NR -18.0999 80.4001 main 2384 2384 __________P___ -1 -18.0999 80.4001 7 3 137
1861039S10077 1861 5 SI MM NOT_NAMED 1861-02-15 15:00:00 NR -18.1999 80.4969 main 2392 2390 __________P___ -1 -18.1999 80.4969 7 3 136
1861039S10077 1861 5 SI MM NOT_NAMED 1861-02-15 18:00:00 NR -18.3000 80.6000 main 2401 2401 __________O___ -1 -18.3000 80.6000 7 3 134
1861039S10077 1861 5 SI MM NOT_NAMED 1861-02-15 21:00:00 NR -18.3918 80.7017 main 2409 2409 __________P___ -1 -18.3918 80.7017 7 3 132
1861039S10077 1861 5 SI MM NOT_NAMED 1861-02-16 00:00:00 NR -18.4848 80.8128 main 2418 2418 __________P___ -1 -18.4848 80.8128 7 3 130
1861039S10077 1861 5 SI MM NOT_NAMED 1861-02-16 03:00:00 NR -18.5855 80.9424 main 2427 2427 __________P___ -1 -18.5855 80.9424 7 3 128
1861039S10077 1861 5 SI MM NOT_NAMED 1861-02-16 06:00:00 NR -18.7000 81.1000 main 2446 2446 __________O___ -1 -18.7000 81.1000 7 4 126
1861039S10077 1861 5 SI MM NOT_NAMED 1861-02-16 09:00:00 NR -18.8275 81.2922 main 2466 2464 __________P___ -1 -18.8275 81.2922 7 5 125
1861039S10077 1861 5 SI MM NOT_NAMED 1861-02-16 12:00:00 NR -18.9700 81.5126 main 2483 2483 __________P___ -1 -18.9700 81.5126 7 5 125
1861039S10077 1861 5 SI MM NOT_NAMED 1861-02-16 15:00:00 NR -19.1275 81.7517 main 2513 2512 __________P___ -1 -19.1275 81.7517 7 6 126
1861039S10077 1861 5 SI MM NOT_NAMED 1861-02-16 18:00:00 NR -19.3000 82.0000 main 2531 2531 __________O___ -1 -19.3000 82.0000 7 6 128
1861039S10077 1861 5 SI MM NOT_NAMED 1861-02-16 21:00:00 NR -19.4938 82.2508 main 2560 2559 __________P___ -1 -19.4938 82.2508 7 6 130
1861039S10077 1861 5 SI MM NOT_NAMED 1861-02-17 00:00:00 NR -19.7000 82.5073 main 2579 2579 __________P___ -1 -19.7000 82.5073 7 6 131
1861039S10077 1861 5 SI MM NOT_NAMED 1861-02-17 03:00:00 NR -19.9063 82.7602 main 2608 2607 __________P___ -1 -19.9063 82.7602 7 6 131
1861039S10077 1861 5 SI MM NOT_NAMED 1861-02-17 06:00:00 NR -20.1000 83.0000 main 2627 2627 __________O___ -1 -20.1000 83.0000 7 6 130
1861039S10077 1861 5 SI MM NOT_NAMED 1861-02-17 09:00:00 NR -20.2642 83.2106 main 2645 2645 __________P___ -1 -20.2642 83.2106 7 5 129
1861039S10077 1861 5 SI MM NOT_NAMED 1861-02-17 12:00:00 NR -20.4147 83.4079 main 2665 2665 __________P___ -1 -20.4147 83.4079 7 5 129
1861039S10077 1861 5 SI MM NOT_NAMED 1861-02-17 15:00:00 NR -20.5579 83.6012 main 2685 2683 __________P___ -1 -20.5579 83.6012 7 5 128
1861039S10077 1861 5 SI MM NOT_NAMED 1861-02-17 18:00:00 NR -20.7000 83.8000 main 2685 2679 __________O___ -1 -20.7000 83.8000 7 5 127
1861039S10077 1861 5 SI MM NOT_NAMED 1861-02-17 21:00:00 NR -20.8458 84.0116 main 2681 2677 __________P___ -1 -20.8458 84.0116 7 5 126
1861039S10077 1861 5 SI MM NOT_NAMED 1861-02-18 00:00:00 NR -20.9954 84.2345 main 2685 2675 __________P___ -1 -20.9954 84.2345 7 5 125
1861039S10077 1861 5 SI MM NOT_NAMED 1861-02-18 03:00:00 NR -21.1472 84.4652 main 2675 2675 __________P___ -1 -21.1472 84.4652 7 5 125
1861039S10077 1861 5 SI MM NOT_NAMED 1861-02-18 06:00:00 NR -21.3000 84.7000 main 2680 __________O___ -1 -21.3000 84.7000 7 5 125

IBTrACS Databaseについて

本データベースは、米国NOAAが公開する1842年以降の世界の熱帯低気圧のベストトラックデータアーカイブInternational Best Track Archive for Climate Stewardship (IBTrACS)を、ウェブで閲覧しやすい形式に変換したものです。

最終更新日:2021-10-21